sensor_id;sensor_type;location;lat;lon;timestamp;pressure;altitude;pressure_sealevel;temperature;humidity
75192;BME280;63771;52.580;9.734;2024-01-11T00:00:36;103010.59;;;-8.94;93.97
75192;BME280;63771;52.580;9.734;2024-01-11T00:03:01;102997.94;;;-8.95;93.20
75192;BME280;63771;52.580;9.734;2024-01-11T00:05:27;103014.94;;;-8.92;93.10
75192;BME280;63771;52.580;9.734;2024-01-11T00:07:53;102999.78;;;-8.94;93.24
75192;BME280;63771;52.580;9.734;2024-01-11T00:10:18;103012.47;;;-8.92;93.35
75192;BME280;63771;52.580;9.734;2024-01-11T00:12:44;103000.03;;;-8.88;93.44
75192;BME280;63771;52.580;9.734;2024-01-11T00:15:09;103002.84;;;-8.87;93.69
75192;BME280;63771;52.580;9.734;2024-01-11T00:17:35;103009.31;;;-8.87;93.91
75192;BME280;63771;52.580;9.734;2024-01-11T00:20:01;103009.34;;;-8.91;93.95
75192;BME280;63771;52.580;9.734;2024-01-11T00:22:26;103013.06;;;-8.94;93.70
75192;BME280;63771;52.580;9.734;2024-01-11T00:24:52;103018.00;;;-8.94;93.98
75192;BME280;63771;52.580;9.734;2024-01-11T00:27:17;103019.28;;;-8.96;93.66
75192;BME280;63771;52.580;9.734;2024-01-11T00:29:43;103026.69;;;-8.96;93.77
75192;BME280;63771;52.580;9.734;2024-01-11T00:32:08;103023.28;;;-8.92;93.78
75192;BME280;63771;52.580;9.734;2024-01-11T00:34:33;103015.59;;;-8.98;93.25
75192;BME280;63771;52.580;9.734;2024-01-11T00:36:59;103000.41;;;-8.95;93.53
75192;BME280;63771;52.580;9.734;2024-01-11T00:39:24;102999.50;;;-8.96;93.51
75192;BME280;63771;52.580;9.734;2024-01-11T00:41:49;103007.31;;;-9.06;93.31
75192;BME280;63771;52.580;9.734;2024-01-11T00:44:16;102989.00;;;-8.99;93.97
75192;BME280;63771;52.580;9.734;2024-01-11T00:46:41;102991.78;;;-8.97;94.00
75192;BME280;63771;52.580;9.734;2024-01-11T00:49:07;103004.84;;;-9.06;93.46
75192;BME280;63771;52.580;9.734;2024-01-11T00:51:32;102998.34;;;-9.10;93.38
75192;BME280;63771;52.580;9.734;2024-01-11T00:53:57;102981.06;;;-9.10;93.76
75192;BME280;63771;52.580;9.734;2024-01-11T00:56:23;102974.88;;;-9.08;93.80
75192;BME280;63771;52.580;9.734;2024-01-11T00:58:48;102961.91;;;-9.07;93.32
75192;BME280;63771;52.580;9.734;2024-01-11T01:01:16;102963.72;;;-9.06;93.60
75192;BME280;63771;52.580;9.734;2024-01-11T01:03:41;102972.72;;;-9.10;93.37
75192;BME280;63771;52.580;9.734;2024-01-11T01:06:07;102971.16;;;-9.06;94.07
75192;BME280;63771;52.580;9.734;2024-01-11T01:08:33;102972.72;;;-9.10;94.45
75192;BME280;63771;52.580;9.734;2024-01-11T01:10:58;102958.19;;;-9.09;94.61
75192;BME280;63771;52.580;9.734;2024-01-11T01:13:23;102955.06;;;-9.04;94.34
75192;BME280;63771;52.580;9.734;2024-01-11T01:15:49;102987.25;;;-9.12;93.91
75192;BME280;63771;52.580;9.734;2024-01-11T01:18:14;102974.63;;;-9.13;93.42
75192;BME280;63771;52.580;9.734;2024-01-11T01:20:40;102972.41;;;-9.08;93.53
75192;BME280;63771;52.580;9.734;2024-01-11T01:23:05;102961.28;;;-9.10;94.37
75192;BME280;63771;52.580;9.734;2024-01-11T01:25:30;102967.47;;;-9.08;93.84
75192;BME280;63771;52.580;9.734;2024-01-11T01:27:57;102970.50;;;-9.05;94.13
75192;BME280;63771;52.580;9.734;2024-01-11T01:30:24;102972.16;;;-9.13;93.79
75192;BME280;63771;52.580;9.734;2024-01-11T01:32:49;102975.94;;;-9.24;93.79
75192;BME280;63771;52.580;9.734;2024-01-11T01:35:15;102982.38;;;-9.24;94.51
75192;BME280;63771;52.580;9.734;2024-01-11T01:37:41;102982.34;;;-9.16;94.97
75192;BME280;63771;52.580;9.734;2024-01-11T01:40:06;102987.94;;;-9.21;94.63
75192;BME280;63771;52.580;9.734;2024-01-11T01:42:33;102981.13;;;-9.18;94.46
75192;BME280;63771;52.580;9.734;2024-01-11T01:44:58;102968.16;;;-9.21;94.57
75192;BME280;63771;52.580;9.734;2024-01-11T01:47:24;102962.25;;;-9.13;94.32
75192;BME280;63771;52.580;9.734;2024-01-11T01:49:50;102971.81;;;-9.15;94.34
75192;BME280;63771;52.580;9.734;2024-01-11T01:52:16;102956.09;;;-9.20;93.64
75192;BME280;63771;52.580;9.734;2024-01-11T01:54:42;102959.56;;;-9.23;93.28
75192;BME280;63771;52.580;9.734;2024-01-11T01:57:08;102955.53;;;-9.23;93.79
75192;BME280;63771;52.580;9.734;2024-01-11T01:59:36;102955.53;;;-9.23;93.90
75192;BME280;63771;52.580;9.734;2024-01-11T02:02:03;102956.44;;;-9.22;93.96
75192;BME280;63771;52.580;9.734;2024-01-11T02:04:29;102950.19;;;-9.12;94.56
75192;BME280;63771;52.580;9.734;2024-01-11T02:06:55;102961.31;;;-9.14;94.45
75192;BME280;63771;52.580;9.734;2024-01-11T02:09:22;102953.34;;;-9.21;94.02
75192;BME280;63771;52.580;9.734;2024-01-11T02:11:47;102968.19;;;-9.25;93.91
75192;BME280;63771;52.580;9.734;2024-01-11T02:14:13;102972.88;;;-9.31;94.24
75192;BME280;63771;52.580;9.734;2024-01-11T02:16:38;102976.59;;;-9.33;94.45
75192;BME280;63771;52.580;9.734;2024-01-11T02:19:07;102959.28;;;-9.29;94.55
75192;BME280;63771;52.580;9.734;2024-01-11T02:21:34;102956.75;;;-9.21;94.83
75192;BME280;63771;52.580;9.734;2024-01-11T02:24:06;102941.28;;;-9.20;94.61
75192;BME280;63771;52.580;9.734;2024-01-11T02:26:32;102936.69;;;-9.22;94.62
75192;BME280;63771;52.580;9.734;2024-01-11T02:28:58;102956.44;;;-9.22;94.28
75192;BME280;63771;52.580;9.734;2024-01-11T02:31:24;102937.88;;;-9.20;94.43
75192;BME280;63771;52.580;9.734;2024-01-11T02:33:51;102931.75;;;-9.22;93.68
75192;BME280;63771;52.580;9.734;2024-01-11T02:36:17;102930.47;;;-9.20;93.93
75192;BME280;63771;52.580;9.734;2024-01-11T02:38:43;102939.38;;;-9.12;93.45
75192;BME280;63771;52.580;9.734;2024-01-11T02:41:09;102933.56;;;-9.21;93.34
75192;BME280;63771;52.580;9.734;2024-01-11T02:43:35;102959.31;;;-9.33;92.99
75192;BME280;63771;52.580;9.734;2024-01-11T02:46:02;102967.09;;;-9.43;93.18
75192;BME280;63771;52.580;9.734;2024-01-11T02:48:30;102967.09;;;-9.39;93.91
75192;BME280;63771;52.580;9.734;2024-01-11T02:50:56;102962.75;;;-9.40;93.83
75192;BME280;63771;52.580;9.734;2024-01-11T02:53:22;102975.06;;;-9.36;93.79
75192;BME280;63771;52.580;9.734;2024-01-11T02:55:49;102958.72;;;-9.40;93.75
75192;BME280;63771;52.580;9.734;2024-01-11T02:58:14;102958.69;;;-9.32;93.98
75192;BME280;63771;52.580;9.734;2024-01-11T03:00:40;102960.88;;;-9.33;93.86
75192;BME280;63771;52.580;9.734;2024-01-11T03:03:05;102963.34;;;-9.37;93.56
75192;BME280;63771;52.580;9.734;2024-01-11T03:05:30;102965.19;;;-9.36;93.68
75192;BME280;63771;52.580;9.734;2024-01-11T03:07:59;102962.75;;;-9.40;93.50
75192;BME280;63771;52.580;9.734;2024-01-11T03:10:24;102968.06;;;-9.51;93.27
75192;BME280;63771;52.580;9.734;2024-01-11T03:12:50;102951.41;;;-9.56;94.00
75192;BME280;63771;52.580;9.734;2024-01-11T03:15:15;102960.09;;;-9.58;94.02
75192;BME280;63771;52.580;9.734;2024-01-11T03:17:41;102983.88;;;-9.63;93.60
75192;BME280;63771;52.580;9.734;2024-01-11T03:20:07;102978.09;;;-9.76;93.74
75192;BME280;63771;52.580;9.734;2024-01-11T03:22:32;102977.19;;;-9.80;94.56
75192;BME280;63771;52.580;9.734;2024-01-11T03:24:58;102981.78;;;-9.74;94.83
75192;BME280;63771;52.580;9.734;2024-01-11T03:27:23;102982.06;;;-9.72;94.79
75192;BME280;63771;52.580;9.734;2024-01-11T03:29:49;102987.63;;;-9.73;94.43
75192;BME280;63771;52.580;9.734;2024-01-11T03:32:15;102993.22;;;-9.78;94.32
75192;BME280;63771;52.580;9.734;2024-01-11T03:34:40;102982.06;;;-9.76;94.13
75192;BME280;63771;52.580;9.734;2024-01-11T03:37:06;102974.09;;;-9.83;94.37
75192;BME280;63771;52.580;9.734;2024-01-11T03:39:31;102974.09;;;-9.83;94.75
75192;BME280;63771;52.580;9.734;2024-01-11T03:41:56;102959.63;;;-9.86;94.65
75192;BME280;63771;52.580;9.734;2024-01-11T03:44:22;102956.16;;;-9.74;95.12
75192;BME280;63771;52.580;9.734;2024-01-11T03:46:47;102953.06;;;-9.73;94.45
75192;BME280;63771;52.580;9.734;2024-01-11T03:49:13;102961.38;;;-9.68;94.25
75192;BME280;63771;52.580;9.734;2024-01-11T03:51:38;102964.78;;;-9.68;94.51
75192;BME280;63771;52.580;9.734;2024-01-11T03:54:06;102942.53;;;-9.64;94.94
75192;BME280;63771;52.580;9.734;2024-01-11T03:56:32;102944.66;;;-9.61;94.70
75192;BME280;63771;52.580;9.734;2024-01-11T03:58:57;102958.56;;;-9.62;93.93
75192;BME280;63771;52.580;9.734;2024-01-11T04:01:22;102977.00;;;-9.52;94.42
75192;BME280;63771;52.580;9.734;2024-01-11T04:03:47;102967.84;;;-9.65;94.14
75192;BME280;63771;52.580;9.734;2024-01-11T04:06:23;102956.75;;;-9.71;94.58
75192;BME280;63771;52.580;9.734;2024-01-11T04:08:49;102948.41;;;-9.67;95.12
75192;BME280;63771;52.580;9.734;2024-01-11T04:11:15;102956.69;;;-9.59;94.77
75192;BME280;63771;52.580;9.734;2024-01-11T04:13:40;102957.63;;;-9.62;94.68
75192;BME280;63771;52.580;9.734;2024-01-11T04:16:06;102956.69;;;-9.55;95.02
75192;BME280;63771;52.580;9.734;2024-01-11T04:18:32;102948.56;;;-9.46;95.24
75192;BME280;63771;52.580;9.734;2024-01-11T04:21:00;102951.09;;;-9.50;94.49
75192;BME280;63771;52.580;9.734;2024-01-11T04:23:25;102941.53;;;-9.56;93.91
75192;BME280;63771;52.580;9.734;2024-01-11T04:25:51;102948.31;;;-9.55;94.35
75192;BME280;63771;52.580;9.734;2024-01-11T04:28:17;102948.00;;;-9.49;94.80
75192;BME280;63771;52.580;9.734;2024-01-11T04:30:42;102947.91;;;-9.40;94.94
75192;BME280;63771;52.580;9.734;2024-01-11T04:33:08;102938.38;;;-9.43;95.09
75192;BME280;63771;52.580;9.734;2024-01-11T04:35:36;102929.41;;;-9.38;94.38
75192;BME280;63771;52.580;9.734;2024-01-11T04:38:02;102930.69;;;-9.44;94.13
75192;BME280;63771;52.580;9.734;2024-01-11T04:40:28;102943.69;;;-9.54;93.71
75192;BME280;63771;52.580;9.734;2024-01-11T04:42:53;102959.47;;;-9.57;93.89
75192;BME280;63771;52.580;9.734;2024-01-11T04:45:18;102964.69;;;-9.56;94.69
75192;BME280;63771;52.580;9.734;2024-01-11T04:47:44;102973.97;;;-9.55;95.06
75192;BME280;63771;52.580;9.734;2024-01-11T04:50:09;102980.13;;;-9.53;95.19
75192;BME280;63771;52.580;9.734;2024-01-11T04:52:34;102997.41;;;-9.57;94.80
75192;BME280;63771;52.580;9.734;2024-01-11T04:55:00;102998.06;;;-9.58;95.10
75192;BME280;63771;52.580;9.734;2024-01-11T04:57:25;102992.78;;;-9.55;94.73
75192;BME280;63771;52.580;9.734;2024-01-11T04:59:51;103000.53;;;-9.62;94.30
75192;BME280;63771;52.580;9.734;2024-01-11T05:02:16;103001.09;;;-9.51;94.37
75192;BME280;63771;52.580;9.734;2024-01-11T05:04:41;103002.66;;;-9.55;94.31
75192;BME280;63771;52.580;9.734;2024-01-11T05:07:07;103007.03;;;-9.62;93.88
75192;BME280;63771;52.580;9.734;2024-01-11T05:09:32;103007.03;;;-9.62;93.88
75192;BME280;63771;52.580;9.734;2024-01-11T05:11:58;102987.00;;;-9.68;93.94
75192;BME280;63771;52.580;9.734;2024-01-11T05:14:23;102980.19;;;-9.65;94.22
75192;BME280;63771;52.580;9.734;2024-01-11T05:16:48;102975.56;;;-9.63;93.86
75192;BME280;63771;52.580;9.734;2024-01-11T05:19:14;102969.63;;;-9.56;94.00
75192;BME280;63771;52.580;9.734;2024-01-11T05:21:39;102981.97;;;-9.56;94.07
75192;BME280;63771;52.580;9.734;2024-01-11T05:24:04;102978.63;;;-9.60;93.42
75192;BME280;63771;52.580;9.734;2024-01-11T05:26:30;102961.63;;;-9.55;94.00
75192;BME280;63771;52.580;9.734;2024-01-11T05:28:55;102958.53;;;-9.54;93.79
75192;BME280;63771;52.580;9.734;2024-01-11T05:31:20;102955.16;;;-9.58;93.60
75192;BME280;63771;52.580;9.734;2024-01-11T05:33:47;102953.97;;;-9.64;93.42
75192;BME280;63771;52.580;9.734;2024-01-11T05:36:12;102958.56;;;-9.62;93.79
75192;BME280;63771;52.580;9.734;2024-01-11T05:38:38;102958.53;;;-9.58;94.47
75192;BME280;63771;52.580;9.734;2024-01-11T05:41:04;102967.78;;;-9.57;94.56
75192;BME280;63771;52.580;9.734;2024-01-11T05:43:29;102970.59;;;-9.59;94.23
75192;BME280;63771;52.580;9.734;2024-01-11T05:45:54;102954.22;;;-9.59;94.57
75192;BME280;63771;52.580;9.734;2024-01-11T05:48:20;102938.50;;;-9.63;94.31
75192;BME280;63771;52.580;9.734;2024-01-11T05:50:45;102949.94;;;-9.64;94.29
75192;BME280;63771;52.580;9.734;2024-01-11T05:53:11;102956.06;;;-9.58;94.86
75192;BME280;63771;52.580;9.734;2024-01-11T05:55:37;102965.31;;;-9.53;94.93
75192;BME280;63771;52.580;9.734;2024-01-11T05:58:02;102966.88;;;-9.57;95.10
75192;BME280;63771;52.580;9.734;2024-01-11T06:00:28;102970.25;;;-9.57;94.95
75192;BME280;63771;52.580;9.734;2024-01-11T06:02:53;102961.56;;;-9.51;95.18
75192;BME280;63771;52.580;9.734;2024-01-11T06:05:18;102961.91;;;-9.49;95.41
75192;BME280;63771;52.580;9.734;2024-01-11T06:07:44;102963.66;;;-9.40;95.46
75192;BME280;63771;52.580;9.734;2024-01-11T06:10:09;102954.75;;;-9.43;95.11
75192;BME280;63771;52.580;9.734;2024-01-11T06:12:35;102942.97;;;-9.40;94.64
75192;BME280;63771;52.580;9.734;2024-01-11T06:15:01;102949.47;;;-9.41;94.62
75192;BME280;63771;52.580;9.734;2024-01-11T06:17:30;102955.69;;;-9.47;94.67
75192;BME280;63771;52.580;9.734;2024-01-11T06:19:55;102952.28;;;-9.43;94.90
75192;BME280;63771;52.580;9.734;2024-01-11T06:22:21;102932.25;;;-9.49;96.13
75192;BME280;63771;52.580;9.734;2024-01-11T06:24:46;102944.78;;;-9.31;96.31
75192;BME280;63771;52.580;9.734;2024-01-11T06:27:11;102945.69;;;-9.31;95.92
75192;BME280;63771;52.580;9.734;2024-01-11T06:29:37;102936.06;;;-9.25;95.74
75192;BME280;63771;52.580;9.734;2024-01-11T06:32:02;102935.75;;;-9.23;95.59
75192;BME280;63771;52.580;9.734;2024-01-11T06:34:28;102937.91;;;-9.24;95.46
75192;BME280;63771;52.580;9.734;2024-01-11T06:36:54;102949.34;;;-9.25;95.74
75192;BME280;63771;52.580;9.734;2024-01-11T06:39:19;102947.78;;;-9.24;96.20
75192;BME280;63771;52.580;9.734;2024-01-11T06:41:45;102946.59;;;-9.26;96.21
75192;BME280;63771;52.580;9.734;2024-01-11T06:44:10;102944.41;;;-9.25;96.06
75192;BME280;63771;52.580;9.734;2024-01-11T06:46:35;102968.84;;;-9.30;96.52
75192;BME280;63771;52.580;9.734;2024-01-11T06:49:02;102969.16;;;-9.29;97.08
75192;BME280;63771;52.580;9.734;2024-01-11T06:51:27;102968.19;;;-9.25;97.04
75192;BME280;63771;52.580;9.734;2024-01-11T06:53:53;102975.34;;;-9.31;96.71
75192;BME280;63771;52.580;9.734;2024-01-11T06:56:19;102993.91;;;-9.33;97.40
75192;BME280;63771;52.580;9.734;2024-01-11T06:58:45;103005.38;;;-9.41;97.46
75192;BME280;63771;52.580;9.734;2024-01-11T07:01:11;103029.81;;;-9.51;96.96
75192;BME280;63771;52.580;9.734;2024-01-11T07:03:37;103037.28;;;-9.59;96.89
75192;BME280;63771;52.580;9.734;2024-01-11T07:06:03;103037.00;;;-9.65;96.62
75192;BME280;63771;52.580;9.734;2024-01-11T07:08:29;103031.13;;;-9.65;96.26
75192;BME280;63771;52.580;9.734;2024-01-11T07:10:54;103020.00;;;-9.63;95.97
75192;BME280;63771;52.580;9.734;2024-01-11T07:13:20;103001.81;;;-9.68;95.67
75192;BME280;63771;52.580;9.734;2024-01-11T07:15:45;103007.00;;;-9.54;95.99
75192;BME280;63771;52.580;9.734;2024-01-11T07:18:12;103002.97;;;-9.54;95.29
75192;BME280;63771;52.580;9.734;2024-01-11T07:20:37;103004.81;;;-9.53;95.20
75192;BME280;63771;52.580;9.734;2024-01-11T07:23:03;103016.88;;;-9.54;95.50
75192;BME280;63771;52.580;9.734;2024-01-11T07:25:29;103010.66;;;-9.44;96.34
75192;BME280;63771;52.580;9.734;2024-01-11T07:27:54;102995.78;;;-9.40;96.28
75192;BME280;63771;52.580;9.734;2024-01-11T07:30:19;102984.94;;;-9.32;95.63
75192;BME280;63771;52.580;9.734;2024-01-11T07:32:45;102997.00;;;-9.38;96.10
75192;BME280;63771;52.580;9.734;2024-01-11T07:35:10;103007.19;;;-9.36;96.47
75192;BME280;63771;52.580;9.734;2024-01-11T07:37:37;103013.38;;;-9.38;97.32
75192;BME280;63771;52.580;9.734;2024-01-11T07:40:06;102997.28;;;-9.28;97.52
75192;BME280;63771;52.580;9.734;2024-01-11T07:42:39;102981.16;;;-9.22;97.10
75192;BME280;63771;52.580;9.734;2024-01-11T07:45:06;102978.31;;;-9.15;97.23
75192;BME280;63771;52.580;9.734;2024-01-11T07:47:35;102986.59;;;-9.03;97.33
75192;BME280;63771;52.580;9.734;2024-01-11T07:50:03;102962.69;;;-8.94;97.42
75192;BME280;63771;52.580;9.734;2024-01-11T07:52:28;102943.16;;;-8.84;97.81
75192;BME280;63771;52.580;9.734;2024-01-11T07:54:54;102947.41;;;-8.75;97.74
75192;BME280;63771;52.580;9.734;2024-01-11T07:57:19;102948.22;;;-8.67;98.24
75192;BME280;63771;52.580;9.734;2024-01-11T07:59:44;102955.28;;;-8.60;97.75
75192;BME280;63771;52.580;9.734;2024-01-11T08:02:10;102960.13;;;-8.52;98.19
75192;BME280;63771;52.580;9.734;2024-01-11T08:04:35;102965.00;;;-8.44;98.11
75192;BME280;63771;52.580;9.734;2024-01-11T08:07:02;102977.91;;;-8.36;98.85
75192;BME280;63771;52.580;9.734;2024-01-11T08:09:30;102977.81;;;-8.28;99.36
75192;BME280;63771;52.580;9.734;2024-01-11T08:11:56;102960.72;;;-8.23;99.85
75192;BME280;63771;52.580;9.734;2024-01-11T08:14:21;102963.69;;;-8.11;99.89
75192;BME280;63771;52.580;9.734;2024-01-11T08:16:46;102972.63;;;-8.08;100.00
75192;BME280;63771;52.580;9.734;2024-01-11T08:19:12;102967.28;;;-8.01;100.00
75192;BME280;63771;52.580;9.734;2024-01-11T08:21:43;102972.97;;;-7.89;100.00
75192;BME280;63771;52.580;9.734;2024-01-11T08:24:09;102995.19;;;-7.80;100.00
75192;BME280;63771;52.580;9.734;2024-01-11T08:26:34;102992.66;;;-7.76;100.00
75192;BME280;63771;52.580;9.734;2024-01-11T08:28:59;103005.56;;;-7.69;100.00
75192;BME280;63771;52.580;9.734;2024-01-11T08:31:24;102994.41;;;-7.67;100.00
75192;BME280;63771;52.580;9.734;2024-01-11T08:33:50;103001.72;;;-7.59;100.00
75192;BME280;63771;52.580;9.734;2024-01-11T08:36:15;102991.75;;;-7.55;100.00
75192;BME280;63771;52.580;9.734;2024-01-11T08:38:41;103001.63;;;-7.51;100.00
75192;BME280;63771;52.580;9.734;2024-01-11T08:41:06;103004.66;;;-7.48;100.00
75192;BME280;63771;52.580;9.734;2024-01-11T08:43:32;103004.56;;;-7.40;100.00
75192;BME280;63771;52.580;9.734;2024-01-11T08:45:58;103005.69;;;-7.33;100.00
75192;BME280;63771;52.580;9.734;2024-01-11T08:48:23;103001.94;;;-7.31;100.00
75192;BME280;63771;52.580;9.734;2024-01-11T08:50:48;103014.09;;;-7.37;100.00
75192;BME280;63771;52.580;9.734;2024-01-11T08:53:14;103008.81;;;-7.34;100.00
75192;BME280;63771;52.580;9.734;2024-01-11T08:55:41;103016.81;;;-7.31;100.00
75192;BME280;63771;52.580;9.734;2024-01-11T08:58:07;103009.75;;;-7.34;100.00
75192;BME280;63771;52.580;9.734;2024-01-11T09:00:32;103012.44;;;-7.28;100.00
75192;BME280;63771;52.580;9.734;2024-01-11T09:02:58;103022.25;;;-7.20;100.00
75192;BME280;63771;52.580;9.734;2024-01-11T09:05:23;103020.28;;;-7.13;100.00
75192;BME280;63771;52.580;9.734;2024-01-11T09:07:48;103003.16;;;-7.07;100.00
75192;BME280;63771;52.580;9.734;2024-01-11T09:10:14;103004.66;;;-7.04;100.00
75192;BME280;63771;52.580;9.734;2024-01-11T09:12:39;103003.94;;;-6.99;100.00
75192;BME280;63771;52.580;9.734;2024-01-11T09:15:05;103000.69;;;-6.90;100.00
75192;BME280;63771;52.580;9.734;2024-01-11T09:17:30;102996.78;;;-6.79;100.00
75192;BME280;63771;52.580;9.734;2024-01-11T09:19:55;102993.53;;;-6.70;100.00
75192;BME280;63771;52.580;9.734;2024-01-11T09:22:21;102989.72;;;-6.64;100.00
75192;BME280;63771;52.580;9.734;2024-01-11T09:24:46;102980.84;;;-6.54;100.00
75192;BME280;63771;52.580;9.734;2024-01-11T09:27:12;102975.75;;;-6.46;100.00
75192;BME280;63771;52.580;9.734;2024-01-11T09:29:42;102974.31;;;-6.36;100.00
75192;BME280;63771;52.580;9.734;2024-01-11T09:32:11;102966.41;;;-6.29;100.00
75192;BME280;63771;52.580;9.734;2024-01-11T09:34:39;102966.81;;;-6.18;100.00
75192;BME280;63771;52.580;9.734;2024-01-11T09:37:05;102964.44;;;-6.08;100.00
75192;BME280;63771;52.580;9.734;2024-01-11T09:39:30;102948.44;;;-6.00;100.00
75192;BME280;63771;52.580;9.734;2024-01-11T09:42:06;102943.31;;;-5.92;100.00
75192;BME280;63771;52.580;9.734;2024-01-11T09:44:33;102938.50;;;-5.87;100.00
75192;BME280;63771;52.580;9.734;2024-01-11T09:47:00;102930.25;;;-5.78;100.00
75192;BME280;63771;52.580;9.734;2024-01-11T09:49:27;102924.81;;;-5.71;100.00
75192;BME280;63771;52.580;9.734;2024-01-11T09:51:55;102941.38;;;-5.62;100.00
75192;BME280;63771;52.580;9.734;2024-01-11T09:54:23;102940.91;;;-5.55;100.00
75192;BME280;63771;52.580;9.734;2024-01-11T09:56:50;102938.91;;;-5.48;100.00
75192;BME280;63771;52.580;9.734;2024-01-11T09:59:19;102953.06;;;-5.43;100.00
75192;BME280;63771;52.580;9.734;2024-01-11T10:01:50;102959.78;;;-5.38;100.00
75192;BME280;63771;52.580;9.734;2024-01-11T10:04:16;102950.66;;;-5.33;100.00
75192;BME280;63771;52.580;9.734;2024-01-11T10:06:41;102958.94;;;-5.29;100.00
75192;BME280;63771;52.580;9.734;2024-01-11T10:09:07;102953.78;;;-5.20;100.00
75192;BME280;63771;52.580;9.734;2024-01-11T10:11:32;102942.63;;;-5.22;100.00
75192;BME280;63771;52.580;9.734;2024-01-11T10:13:59;102943.09;;;-5.15;100.00
75192;BME280;63771;52.580;9.734;2024-01-11T10:16:28;102938.03;;;-5.11;100.00
75192;BME280;63771;52.580;9.734;2024-01-11T10:18:56;102946.28;;;-5.07;100.00
75192;BME280;63771;52.580;9.734;2024-01-11T10:21:23;102952.09;;;-5.02;100.00
75192;BME280;63771;52.580;9.734;2024-01-11T10:23:49;102946.47;;;-5.01;100.00
75192;BME280;63771;52.580;9.734;2024-01-11T10:26:18;102946.09;;;-4.99;100.00
75192;BME280;63771;52.580;9.734;2024-01-11T10:28:50;102959.34;;;-4.94;100.00
75192;BME280;63771;52.580;9.734;2024-01-11T10:31:15;102962.38;;;-4.91;100.00
75192;BME280;63771;52.580;9.734;2024-01-11T10:33:41;102958.50;;;-4.85;100.00
75192;BME280;63771;52.580;9.734;2024-01-11T10:36:06;102957.09;;;-4.79;100.00
75192;BME280;63771;52.580;9.734;2024-01-11T10:38:36;102957.94;;;-4.74;100.00
75192;BME280;63771;52.580;9.734;2024-01-11T10:41:04;102953.63;;;-4.65;100.00
75192;BME280;63771;52.580;9.734;2024-01-11T10:43:31;102951.59;;;-4.58;100.00
75192;BME280;63771;52.580;9.734;2024-01-11T10:45:59;102954.63;;;-4.55;100.00
75192;BME280;63771;52.580;9.734;2024-01-11T10:48:25;102950.84;;;-4.53;100.00
75192;BME280;63771;52.580;9.734;2024-01-11T10:50:54;102944.19;;;-4.49;100.00
75192;BME280;63771;52.580;9.734;2024-01-11T10:53:31;102943.13;;;-4.45;100.00
75192;BME280;63771;52.580;9.734;2024-01-11T10:56:03;102937.13;;;-4.41;100.00
75192;BME280;63771;52.580;9.734;2024-01-11T10:58:30;102948.16;;;-4.35;100.00
75192;BME280;63771;52.580;9.734;2024-01-11T11:00:57;102947.81;;;-4.33;100.00
75192;BME280;63771;52.580;9.734;2024-01-11T11:03:25;102945.47;;;-4.27;100.00
75192;BME280;63771;52.580;9.734;2024-01-11T11:05:53;102934.06;;;-4.21;100.00
75192;BME280;63771;52.580;9.734;2024-01-11T11:08:19;102934.88;;;-4.16;100.00
75192;BME280;63771;52.580;9.734;2024-01-11T11:10:45;102922.81;;;-4.09;100.00
75192;BME280;63771;52.580;9.734;2024-01-11T11:13:14;102920.75;;;-4.02;100.00
75192;BME280;63771;52.580;9.734;2024-01-11T11:15:45;102922.19;;;-3.99;100.00
75192;BME280;63771;52.580;9.734;2024-01-11T11:18:13;102929.16;;;-3.92;100.00
75192;BME280;63771;52.580;9.734;2024-01-11T11:20:40;102923.56;;;-3.91;100.00
75192;BME280;63771;52.580;9.734;2024-01-11T11:23:07;102921.44;;;-3.84;100.00
75192;BME280;63771;52.580;9.734;2024-01-11T11:25:35;102908.88;;;-3.80;100.00
75192;BME280;63771;52.580;9.734;2024-01-11T11:28:00;102914.91;;;-3.74;100.00
75192;BME280;63771;52.580;9.734;2024-01-11T11:30:37;102910.31;;;-3.67;100.00
75192;BME280;63771;52.580;9.734;2024-01-11T11:33:10;102899.06;;;-3.64;100.00
75192;BME280;63771;52.580;9.734;2024-01-11T11:35:37;102899.44;;;-3.57;100.00
75192;BME280;63771;52.580;9.734;2024-01-11T11:38:02;102891.28;;;-3.56;100.00
75192;BME280;63771;52.580;9.734;2024-01-11T11:40:40;102889.22;;;-3.49;100.00
75192;BME280;63771;52.580;9.734;2024-01-11T11:43:10;102881.56;;;-3.45;100.00
75192;BME280;63771;52.580;9.734;2024-01-11T11:45:35;102880.16;;;-3.39;100.00
75192;BME280;63771;52.580;9.734;2024-01-11T11:53:34;102881.44;;;-3.31;100.00
75192;BME280;63771;52.580;9.734;2024-01-11T11:56:00;102888.81;;;-3.27;100.00
75192;BME280;63771;52.580;9.734;2024-01-11T11:58:26;102884.06;;;-3.26;100.00
75192;BME280;63771;52.580;9.734;2024-01-11T12:00:53;102882.09;;;-3.23;100.00
75192;BME280;63771;52.580;9.734;2024-01-11T12:03:18;102872.63;;;-3.20;100.00
75192;BME280;63771;52.580;9.734;2024-01-11T12:05:43;102860.03;;;-3.16;100.00
75192;BME280;63771;52.580;9.734;2024-01-11T12:08:09;102852.41;;;-3.11;100.00
75192;BME280;63771;52.580;9.734;2024-01-11T12:10:34;102842.13;;;-3.03;100.00
75192;BME280;63771;52.580;9.734;2024-01-11T12:12:59;102851.97;;;-2.99;100.00
75192;BME280;63771;52.580;9.734;2024-01-11T12:15:27;102858.91;;;-2.93;100.00
75192;BME280;63771;52.580;9.734;2024-01-11T12:17:57;102849.69;;;-2.88;100.00
75192;BME280;63771;52.580;9.734;2024-01-11T12:20:23;102844.06;;;-2.87;100.00
75192;BME280;63771;52.580;9.734;2024-01-11T12:22:48;102850.72;;;-2.82;100.00
75192;BME280;63771;52.580;9.734;2024-01-11T12:25:14;102852.16;;;-2.78;100.00
75192;BME280;63771;52.580;9.734;2024-01-11T12:27:39;102867.00;;;-2.74;100.00
75192;BME280;63771;52.580;9.734;2024-01-11T12:30:06;102879.75;;;-2.73;100.00
75192;BME280;63771;52.580;9.734;2024-01-11T12:32:32;102872.94;;;-2.74;100.00
75192;BME280;63771;52.580;9.734;2024-01-11T12:34:58;102867.25;;;-2.73;100.00
75192;BME280;63771;52.580;9.734;2024-01-11T12:37:23;102844.13;;;-2.72;100.00
75192;BME280;63771;52.580;9.734;2024-01-11T12:39:48;102838.97;;;-2.68;100.00
75192;BME280;63771;52.580;9.734;2024-01-11T12:42:16;102847.81;;;-2.70;100.00
75192;BME280;63771;52.580;9.734;2024-01-11T12:44:42;102848.19;;;-2.72;100.00